Terminal Aerodrome Forecast
Issued by NWS

Home | Current Version | Previous Version | Text Only | Print | Product List | Glossary On
Versions: 1 2 3 4 5 6 7 8 9 10 11 12 13
000
FTUS45 KTFX 051700
TAFHVR
TAF
KHVR 051735Z 0518/0618 24015KT P6SM SCT150
     FM052000 26015G25KT P6SM BKN150
     FM060200 23010KT P6SM BKN150
     FM061200 24015KT P6SM BKN120=

USA.gov is the U.S. government's official web portal to all federal, state and local government web resources and services.